Terminal Aerodrome Forecast
Issued by NWS

Home | Current Version | Previous Version | Text Only | Print | Product List | Glossary Off
Versions: 1 2 3 4 5 6 7 8 9 10 11 12 13 14 15 16 17 18 19 20

000
FTUS43 KTOP 281700
TAFFOE
TAF
KFOE 281738Z 2818/0118 13009KT 1SM -SN BKN018 OVC035
      TEMPO 2819/2823 1/2SM SN BKN008
     FM010100 17006KT 6SM BR BKN030
     FM010600 20006KT 2SM -SN BKN020 OVC035
     FM010800 22006KT P6SM SCT015 BKN030=

USA.gov is the U.S. government's official web portal to all federal, state and local government web resources and services.